Time;durP1;ratioP1;P1;durP2;ratioP2;P2;SDS_P1;SDS_P2;PMS_P1;PMS_P2;Temp;Humidity;BMP_temperature;BMP_pressure;BME280_temperature;BME280_humidity;BME280_pressure;Samples;Min_cycle;Max_cycle;Signal;HPM_P1;HPM_P2
2022/08/01 00:00:47;;;;;;;4.60;2.30;;;18.20;99.90;;;;;;4245992;28;20031;-82
2022/08/01 00:02:47;;;;;;;3.97;2.15;;;18.20;99.90;;;;;;4264831;27;20053;-82
2022/08/01 00:04:48;;;;;;;5.28;2.63;;;18.20;99.90;;;;;;4246121;28;20122;-83
2022/08/01 00:06:49;;;;;;;6.18;2.38;;;18.20;99.90;;;;;;4264607;27;20054;-82
2022/08/01 00:08:49;;;;;;;3.03;2.45;;;18.20;99.90;;;;;;4264859;27;20101;-82
2022/08/01 00:10:50;;;;;;;5.78;2.80;;;18.20;99.90;;;;;;4264819;27;20130;-82
2022/08/01 00:12:51;;;;;;;9.23;2.40;;;18.20;99.90;;;;;;4264415;27;20482;-82
2022/08/01 00:14:52;;;;;;;8.82;2.92;;;18.20;99.90;;;;;;4258026;27;20035;-83
2022/08/01 00:16:52;;;;;;;6.25;1.92;;;18.20;99.90;;;;;;4247434;28;20096;-83
2022/08/01 00:18:53;;;;;;;8.10;3.08;;;18.20;99.90;;;;;;4228619;28;20048;-83
2022/08/01 00:20:54;;;;;;;4.88;2.38;;;18.20;99.90;;;;;;4229275;28;20043;-83
2022/08/01 00:22:55;;;;;;;5.00;2.40;;;18.20;99.90;;;;;;4247411;27;20147;-82
2022/08/01 00:24:55;;;;;;;3.67;1.92;;;18.20;99.90;;;;;;4247479;28;20051;-83
2022/08/01 00:26:56;;;;;;;4.10;2.17;;;18.20;99.90;;;;;;4247081;28;20106;-82
2022/08/01 00:28:58;;;;;;;6.40;2.10;;;18.20;99.90;;;;;;4247369;28;20043;-83
2022/08/01 00:30:58;;;;;;;3.67;1.90;;;18.20;99.90;;;;;;4229236;28;20074;-83
2022/08/01 00:32:59;;;;;;;6.90;2.20;;;18.20;99.90;;;;;;4229243;28;20051;-83
2022/08/01 00:35:00;;;;;;;8.20;1.98;;;18.20;99.90;;;;;;4228569;28;20047;-83
2022/08/01 00:37:01;;;;;;;5.43;1.90;;;18.20;99.90;;;;;;4229189;28;20052;-83
2022/08/01 00:39:01;;;;;;;7.78;1.88;;;18.20;99.90;;;;;;4247410;28;20079;-83
2022/08/01 00:41:02;;;;;;;7.22;3.05;;;18.20;99.90;;;;;;4229071;28;20039;-82
2022/08/01 00:43:03;;;;;;;3.03;2.28;;;18.20;99.90;;;;;;4228770;28;20047;-83
2022/08/01 00:45:04;;;;;;;8.95;2.40;;;18.20;99.90;;;;;;4254271;27;20053;-82
2022/08/01 00:47:06;;;;;;;5.95;2.00;;;18.20;99.90;;;;;;4264430;27;20046;-82
2022/08/01 00:49:07;;;;;;;5.25;2.30;;;18.20;99.90;;;;;;4264390;27;20046;-82
2022/08/01 00:51:08;;;;;;;3.70;1.77;;;18.20;99.90;;;;;;4263835;27;20043;-83
2022/08/01 00:53:09;;;;;;;4.13;2.35;;;18.20;99.90;;;;;;4264427;27;20072;-82
2022/08/01 00:55:12;;;;;;;5.07;2.10;;;18.20;99.90;;;;;;4251132;27;20051;-83
2022/08/01 00:57:13;;;;;;;10.05;1.77;;;18.20;99.90;;;;;;4247117;28;20043;-83
2022/08/01 00:59:16;;;;;;;4.75;1.75;;;18.20;99.90;;;;;;4228789;28;20059;-83
2022/08/01 01:01:20;;;;;;;7.05;2.72;;;18.20;99.90;;;;;;4248134;27;20107;-83
2022/08/01 01:03:23;;;;;;;2.70;1.60;;;18.20;99.90;;;;;;4244859;28;20047;-83
2022/08/01 01:05:23;;;;;;;4.07;1.73;;;18.20;99.90;;;;;;4245760;28;20487;-82
2022/08/01 01:07:49;;;;;;;7.43;1.65;;;18.10;99.90;;;;;;4245961;28;20087;-83
2022/08/01 01:09:52;;;;;;;4.07;1.90;;;18.10;99.90;;;;;;4263757;27;20482;-83
2022/08/01 01:12:11;;;;;;;2.38;1.63;;;18.10;99.90;;;;;;4215335;28;20040;-83
2022/08/01 01:14:16;;;;;;;;;;;18.10;99.90;;;;;;4250552;27;20043;-83
2022/08/01 01:16:19;;;;;;;7.05;1.80;;;18.10;99.90;;;;;;4249684;27;19919;-83
2022/08/01 01:18:34;;;;;;;7.45;1.50;;;18.00;99.90;;;;;;4231940;28;20047;-83
2022/08/01 01:20:42;;;;;;;4.25;1.30;;;18.00;99.90;;;;;;4256956;27;20042;-83
2022/08/01 01:23:09;;;;;;;3.13;1.07;;;17.90;99.90;;;;;;4266299;27;20058;-83
2022/08/01 01:25:36;;;;;;;4.60;1.23;;;17.90;99.90;;;;;;4267166;27;20521;-83
2022/08/01 01:27:49;;;;;;;3.17;1.27;;;17.80;99.90;;;;;;4267215;27;20070;-83
2022/08/01 01:29:56;;;;;;;3.33;1.55;;;17.80;99.90;;;;;;4267115;27;20038;-83
2022/08/01 01:32:12;;;;;;;5.88;1.40;;;17.80;99.90;;;;;;4246344;27;20486;-83
2022/08/01 01:34:17;;;;;;;5.97;1.15;;;17.80;99.90;;;;;;4266756;27;20039;-83
2022/08/01 01:36:20;;;;;;;6.93;1.90;;;17.80;99.90;;;;;;4266820;27;20050;-83
2022/08/01 01:38:28;;;;;;;3.28;1.27;;;17.80;99.90;;;;;;4248639;27;20051;-83
2022/08/01 01:40:30;;;;;;;8.13;1.40;;;17.80;99.90;;;;;;4264873;27;20379;-83
2022/08/01 01:42:32;;;;;;;5.72;2.33;;;17.80;99.90;;;;;;4249641;27;20047;-83
2022/08/01 01:44:35;;;;;;;5.78;1.42;;;17.70;99.90;;;;;;4230582;28;20437;-83
2022/08/01 01:46:36;;;;;;;3.03;1.08;;;17.70;99.90;;;;;;4249630;27;20133;-83
2022/08/01 01:48:39;;;;;;;5.97;1.20;;;17.70;99.90;;;;;;4249640;27;20050;-83
2022/08/01 01:50:42;;;;;;;5.07;1.70;;;17.70;99.90;;;;;;4249951;27;20046;-83
2022/08/01 01:52:45;;;;;;;6.55;1.08;;;17.70;99.90;;;;;;4231348;28;20495;-83
2022/08/01 01:54:50;;;;;;;12.77;1.25;;;17.70;99.90;;;;;;4249068;27;20051;-83
2022/08/01 01:56:52;;;;;;;7.18;1.40;;;17.70;99.90;;;;;;4231317;28;20493;-83
2022/08/01 01:58:56;;;;;;;7.72;1.70;;;17.70;99.90;;;;;;4249580;27;20039;-83
2022/08/01 02:00:59;;;;;;;6.47;1.42;;;17.70;99.90;;;;;;4249971;27;20046;-82
2022/08/01 02:03:04;;;;;;;10.43;2.80;;;17.60;99.90;;;;;;4249399;27;20131;-82
2022/08/01 02:05:10;;;;;;;7.82;1.25;;;17.70;99.90;;;;;;4231210;28;20044;-82
2022/08/01 02:07:16;;;;;;;7.90;1.20;;;17.60;99.90;;;;;;4230422;28;20047;-82
2022/08/01 02:09:19;;;;;;;4.50;0.98;;;17.70;99.90;;;;;;4231027;28;20059;-82
2022/08/01 02:11:21;;;;;;;4.18;1.13;;;17.60;99.90;;;;;;4231119;28;20052;-82
2022/08/01 02:13:22;;;;;;;2.75;0.80;;;17.60;99.90;;;;;;4230925;28;20058;-82
2022/08/01 02:15:24;;;;;;;6.30;1.00;;;17.70;99.90;;;;;;4231018;28;20047;-83
2022/08/01 02:17:26;;;;;;;3.40;0.68;;;17.60;99.90;;;;;;4230460;27;20117;-83
2022/08/01 02:19:27;;;;;;;3.13;0.90;;;17.60;99.90;;;;;;4249234;27;20051;-82
2022/08/01 02:21:32;;;;;;;4.55;1.23;;;17.60;99.90;;;;;;4236309;27;20395;-82
2022/08/01 02:23:35;;;;;;;3.63;1.20;;;17.60;99.90;;;;;;4247680;27;20051;-82
2022/08/01 02:25:42;;;;;;;9.48;1.30;;;17.60;99.90;;;;;;4247777;27;20044;-83
2022/08/01 02:27:50;;;;;;;6.70;1.25;;;17.60;99.90;;;;;;4247706;27;20122;-82
2022/08/01 02:29:59;;;;;;;6.95;1.35;;;17.60;99.90;;;;;;4265883;27;20039;-82
2022/08/01 02:32:02;;;;;;;9.18;1.48;;;17.60;99.90;;;;;;4266259;27;20074;-82
2022/08/01 02:34:06;;;;;;;4.55;1.35;;;17.60;99.90;;;;;;4230606;28;20450;-82
2022/08/01 02:36:08;;;;;;;9.88;1.83;;;17.60;99.90;;;;;;4266010;27;20160;-82
2022/08/01 02:38:11;;;;;;;6.55;1.52;;;17.60;99.90;;;;;;4256290;27;20475;-82
2022/08/01 02:40:13;;;;;;;8.07;1.50;;;17.60;99.90;;;;;;4230571;28;20097;-82
2022/08/01 02:42:15;;;;;;;8.27;2.38;;;17.60;99.90;;;;;;4248326;27;20062;-82
2022/08/01 02:44:30;;;;;;;10.23;1.77;;;17.60;99.90;;;;;;4230474;28;20087;-83
2022/08/01 02:46:43;;;;;;;8.57;2.58;;;17.50;99.90;;;;;;4259086;27;20039;-83
2022/08/01 02:48:45;;;;;;;9.23;2.00;;;17.50;99.90;;;;;;4247435;27;20054;-82
2022/08/01 02:50:49;;;;;;;7.18;2.08;;;17.50;99.90;;;;;;4247395;27;20483;-82
2022/08/01 02:52:51;;;;;;;9.35;2.05;;;17.50;99.90;;;;;;4247072;27;20050;-83
2022/08/01 02:54:55;;;;;;;4.93;1.50;;;17.50;99.90;;;;;;4213384;28;20048;-83
2022/08/01 02:56:56;;;;;;;9.73;2.00;;;17.50;99.90;;;;;;4247393;27;20118;-82
2022/08/01 02:58:57;;;;;;;12.30;2.05;;;17.40;99.90;;;;;;4234667;27;20100;-82
2022/08/01 03:00:58;;;;;;;13.32;2.00;;;17.40;99.90;;;;;;4248741;27;20480;-82
2022/08/01 03:03:01;;;;;;;5.50;1.48;;;17.40;99.90;;;;;;4248152;27;20051;-83
2022/08/01 03:05:02;;;;;;;7.50;1.90;;;17.30;99.90;;;;;;4248497;27;20058;-82
2022/08/01 03:07:06;;;;;;;7.90;1.85;;;17.30;99.90;;;;;;4248548;27;20055;-82
2022/08/01 03:09:07;;;;;;;9.15;2.67;;;17.30;99.90;;;;;;4248464;27;20047;-83
2022/08/01 03:11:08;;;;;;;7.38;2.10;;;17.20;99.90;;;;;;4250374;27;20475;-82
2022/08/01 03:13:11;;;;;;;11.43;1.98;;;17.20;99.90;;;;;;4229980;27;20114;-82
2022/08/01 03:15:13;;;;;;;13.77;2.67;;;17.20;99.90;;;;;;4230196;28;20578;-82
2022/08/01 03:17:16;;;;;;;7.60;2.05;;;17.20;99.90;;;;;;4229682;28;20048;-82
2022/08/01 03:19:19;;;;;;;9.80;2.83;;;17.10;99.90;;;;;;4248366;27;20043;-82
2022/08/01 03:21:21;;;;;;;11.35;2.28;;;17.10;99.90;;;;;;4248279;27;20522;-82
2022/08/01 03:23:23;;;;;;;11.75;3.67;;;17.10;99.90;;;;;;4229657;28;20062;-82
2022/08/01 03:25:27;;;;;;;6.45;1.90;;;17.20;99.90;;;;;;4229545;28;20108;-82
2022/08/01 03:27:29;;;;;;;8.55;2.30;;;17.10;99.90;;;;;;4247524;27;20122;-82
2022/08/01 03:29:31;;;;;;;5.97;1.98;;;17.10;99.90;;;;;;4248204;27;20632;-82
2022/08/01 03:31:35;;;;;;;7.97;2.08;;;17.10;99.90;;;;;;4229465;28;20055;-82
2022/08/01 03:33:36;;;;;;;10.40;2.00;;;17.10;99.90;;;;;;4251977;27;20379;-82
2022/08/01 03:35:42;;;;;;;6.15;1.80;;;17.10;99.90;;;;;;4265060;27;20037;-82
2022/08/01 03:37:46;;;;;;;9.52;1.92;;;17.20;99.90;;;;;;4264545;27;20510;-83
2022/08/01 03:39:59;;;;;;;5.30;1.80;;;17.20;99.90;;;;;;4246908;27;20043;-82
2022/08/01 03:42:07;;;;;;;5.47;1.63;;;17.20;99.90;;;;;;4264938;27;20050;-82
2022/08/01 03:44:13;;;;;;;5.47;2.00;;;17.20;99.90;;;;;;4264534;27;20098;-83
2022/08/01 03:46:20;;;;;;;8.00;1.80;;;17.20;99.90;;;;;;4264645;27;20448;-83
2022/08/01 03:48:29;;;;;;;8.13;2.47;;;17.20;99.90;;;;;;4264807;27;20066;-83
2022/08/01 03:50:33;;;;;;;;;;;17.20;99.90;;;;;;4265177;27;20126;-83
2022/08/01 03:52:36;;;;;;;13.32;1.63;;;17.20;99.90;;;;;;4264715;27;19919;-83
2022/08/01 03:54:43;;;;;;;12.93;1.98;;;17.20;99.90;;;;;;4238013;27;20040;-83
2022/08/01 03:56:45;;;;;;;7.93;1.70;;;17.10;99.90;;;;;;4246991;28;20044;-83
2022/08/01 03:58:46;;;;;;;10.25;1.70;;;17.10;99.90;;;;;;4247766;28;20039;-83
2022/08/01 04:00:48;;;;;;;13.63;2.20;;;17.10;99.90;;;;;;4247713;28;20038;-83
2022/08/01 04:02:50;;;;;;;10.85;2.40;;;17.10;99.90;;;;;;4236470;28;20058;-83
2022/08/01 04:04:51;;;;;;;11.48;1.70;;;17.10;99.90;;;;;;4264282;27;20088;-83
2022/08/01 04:06:53;;;;;;;8.77;1.92;;;17.10;99.90;;;;;;4265105;27;20038;-83
2022/08/01 04:08:57;;;;;;;7.47;1.65;;;17.00;99.90;;;;;;4264813;27;20117;-83
2022/08/01 04:10:58;;;;;;;8.63;2.22;;;17.00;99.90;;;;;;4264771;27;20114;-83
2022/08/01 04:12:59;;;;;;;13.57;2.28;;;17.00;99.90;;;;;;4229499;28;20081;-83
2022/08/01 04:15:00;;;;;;;8.02;2.05;;;16.90;99.90;;;;;;4251404;27;20043;-83
2022/08/01 04:17:01;;;;;;;10.20;2.20;;;16.90;99.90;;;;;;4212789;28;20494;-82
2022/08/01 04:19:02;;;;;;;6.40;1.60;;;16.90;99.90;;;;;;4249919;28;20044;-83
2022/08/01 04:21:03;;;;;;;12.25;2.50;;;16.80;99.90;;;;;;4229475;28;20128;-83
2022/08/01 04:23:03;;;;;;;8.75;2.42;;;16.80;99.90;;;;;;4229315;28;20043;-82
2022/08/01 04:25:12;;;;;;;14.45;3.00;;;16.90;99.90;;;;;;4247844;27;20057;-83
2022/08/01 04:27:19;;;;;;;6.63;2.03;;;16.90;99.90;;;;;;4247735;28;20043;-83
2022/08/01 04:29:21;;;;;;;10.35;1.75;;;16.90;99.90;;;;;;4247301;28;20289;-83
2022/08/01 04:31:25;;;;;;;8.00;1.73;;;16.80;99.90;;;;;;4247109;28;20394;-82
2022/08/01 04:33:29;;;;;;;6.50;1.85;;;16.90;99.90;;;;;;4230466;28;20047;-83
2022/08/01 04:35:32;;;;;;;11.65;2.17;;;16.90;99.90;;;;;;4212422;28;20052;-83
2022/08/01 04:37:36;;;;;;;9.68;2.03;;;16.90;99.90;;;;;;4228845;28;20055;-83
2022/08/01 04:39:39;;;;;;;11.82;1.80;;;16.90;99.90;;;;;;4251635;27;20050;-83
2022/08/01 04:41:41;;;;;;;14.25;2.67;;;16.90;99.90;;;;;;4246279;28;20062;-83
2022/08/01 04:43:42;;;;;;;10.57;1.55;;;16.90;99.90;;;;;;4246596;27;20060;-83
2022/08/01 04:45:44;;;;;;;8.95;1.70;;;17.00;99.90;;;;;;4249063;27;20051;-83
2022/08/01 04:47:47;;;;;;;12.40;1.95;;;16.90;99.90;;;;;;4268051;27;20046;-82
2022/08/01 04:49:48;;;;;;;8.30;2.22;;;16.90;99.90;;;;;;4249322;27;20213;-83
2022/08/01 04:51:51;;;;;;;8.50;1.98;;;16.90;99.90;;;;;;4267221;27;20241;-83
2022/08/01 04:53:52;;;;;;;9.73;2.58;;;16.90;99.90;;;;;;4249336;27;20043;-83
2022/08/01 04:55:53;;;;;;;11.40;1.70;;;17.00;99.90;;;;;;4267820;27;20109;-83
2022/08/01 04:57:53;;;;;;;15.23;2.17;;;16.90;99.90;;;;;;4249075;27;20073;-83
2022/08/01 04:59:56;;;;;;;14.82;3.22;;;16.90;99.90;;;;;;4256392;27;20554;-83
2022/08/01 05:01:57;;;;;;;10.77;2.72;;;17.00;99.90;;;;;;4232216;28;20043;-83
2022/08/01 05:03:58;;;;;;;9.38;2.03;;;17.00;99.90;;;;;;4250433;27;20039;-82
2022/08/01 05:05:58;;;;;;;7.50;1.75;;;17.00;99.90;;;;;;4250090;27;20050;-83
2022/08/01 05:08:00;;;;;;;9.00;1.90;;;17.00;99.90;;;;;;4258521;27;20398;-83
2022/08/01 05:10:01;;;;;;;11.48;2.00;;;17.00;99.90;;;;;;4248807;27;20055;-83
2022/08/01 05:12:03;;;;;;;14.27;2.47;;;17.00;99.90;;;;;;4249001;27;20510;-83
2022/08/01 05:14:03;;;;;;;17.75;3.40;;;17.00;99.90;;;;;;4267807;27;20074;-83
2022/08/01 05:16:04;;;;;;;10.02;2.20;;;17.00;99.90;;;;;;4249651;27;20042;-83
2022/08/01 05:18:05;;;;;;;8.23;1.60;;;17.00;99.90;;;;;;4251394;27;20050;-83
2022/08/01 05:20:06;;;;;;;11.25;2.40;;;17.10;99.90;;;;;;4250586;27;20042;-83
2022/08/01 05:22:08;;;;;;;11.82;1.80;;;17.10;99.90;;;;;;4250472;27;20579;-83
2022/08/01 05:24:09;;;;;;;14.38;1.88;;;17.10;99.90;;;;;;4250239;27;20554;-83
2022/08/01 05:26:11;;;;;;;15.35;2.33;;;17.10;99.90;;;;;;4250186;27;20043;-83
2022/08/01 05:28:12;;;;;;;10.05;2.30;;;17.10;99.90;;;;;;4237655;27;20061;-82
2022/08/01 05:30:12;;;;;;;10.73;1.88;;;17.10;99.90;;;;;;4248623;27;20410;-83
2022/08/01 05:32:13;;;;;;;13.30;2.38;;;17.10;99.90;;;;;;4266720;27;20487;-83
2022/08/01 05:34:14;;;;;;;12.23;2.20;;;17.10;99.90;;;;;;4248829;27;20570;-83
2022/08/01 05:36:15;;;;;;;8.65;2.30;;;17.10;99.90;;;;;;4248178;27;20051;-83
2022/08/01 05:38:16;;;;;;;11.68;2.42;;;17.10;99.90;;;;;;4249710;27;20380;-83
2022/08/01 05:40:16;;;;;;;13.63;2.53;;;17.10;99.90;;;;;;4230930;28;20051;-83
2022/08/01 05:42:17;;;;;;;11.27;2.70;;;17.10;99.90;;;;;;4249830;27;20047;-83
2022/08/01 05:44:18;;;;;;;13.70;2.05;;;17.10;99.90;;;;;;4248091;27;20043;-83
2022/08/01 05:46:18;;;;;;;15.70;2.17;;;17.10;99.90;;;;;;4249683;27;20077;-83
2022/08/01 05:48:19;;;;;;;14.35;2.65;;;17.10;99.90;;;;;;4214121;28;20047;-83
2022/08/01 05:50:19;;;;;;;24.30;3.08;;;17.10;99.90;;;;;;4230874;28;20055;-83
2022/08/01 05:52:20;;;;;;;10.00;1.95;;;17.10;99.90;;;;;;4231071;28;20047;-83
2022/08/01 05:54:21;;;;;;;14.13;2.65;;;17.10;99.90;;;;;;4249139;27;20147;-83
2022/08/01 05:56:22;;;;;;;11.98;2.65;;;17.10;99.90;;;;;;4249347;27;20118;-84
2022/08/01 05:58:23;;;;;;;12.68;2.03;;;17.20;99.90;;;;;;4247761;27;20047;-83
2022/08/01 06:00:23;;;;;;;15.07;2.45;;;17.10;99.90;;;;;;4248980;27;20429;-83
2022/08/01 06:02:24;;;;;;;13.52;2.72;;;17.10;99.90;;;;;;4231638;28;20134;-83
2022/08/01 06:04:25;;;;;;;13.98;2.45;;;17.10;99.90;;;;;;4249900;27;20078;-83
2022/08/01 06:06:25;;;;;;;13.40;2.00;;;17.20;99.90;;;;;;4249194;27;20379;-83
2022/08/01 06:08:27;;;;;;;14.18;2.70;;;17.10;99.90;;;;;;4249699;27;20512;-84
2022/08/01 06:10:28;;;;;;;9.73;2.05;;;17.10;99.90;;;;;;4231234;28;20116;-83
2022/08/01 06:12:28;;;;;;;11.15;2.28;;;17.10;99.90;;;;;;4250060;27;20118;-84
2022/08/01 06:14:29;;;;;;;20.27;3.15;;;17.10;99.90;;;;;;4230540;28;20047;-83
2022/08/01 06:16:30;;;;;;;13.15;1.95;;;17.10;99.90;;;;;;4249765;27;20494;-83
2022/08/01 06:18:30;;;;;;;9.40;2.13;;;17.10;99.90;;;;;;4249787;27;20071;-83
2022/08/01 06:20:31;;;;;;;13.57;1.90;;;17.10;99.90;;;;;;4250676;27;20379;-84
2022/08/01 06:22:32;;;;;;;12.95;1.45;;;17.10;99.90;;;;;;4245333;27;20055;-84
2022/08/01 06:24:33;;;;;;;13.75;1.83;;;17.10;99.90;;;;;;4278603;27;20043;-83
2022/08/01 06:26:33;;;;;;;13.32;2.17;;;17.10;99.90;;;;;;4280071;27;20035;-83
2022/08/01 06:28:34;;;;;;;12.60;2.25;;;17.10;99.90;;;;;;4281601;27;20039;-83
2022/08/01 06:30:35;;;;;;;10.13;2.20;;;17.10;99.90;;;;;;4282581;27;20056;-82
2022/08/01 06:32:36;;;;;;;8.63;2.05;;;17.10;99.90;;;;;;4280729;27;20046;-83
2022/08/01 06:34:36;;;;;;;9.25;2.05;;;17.10;99.90;;;;;;4281689;27;20049;-83
2022/08/01 06:36:37;;;;;;;11.93;2.30;;;17.10;99.90;;;;;;4281281;27;20109;-83
2022/08/01 06:38:38;;;;;;;10.10;2.00;;;17.20;99.90;;;;;;4244476;28;20047;-83
2022/08/01 06:40:39;;;;;;;8.23;1.80;;;17.10;99.90;;;;;;4248206;27;20047;-83
2022/08/01 06:42:39;;;;;;;7.57;1.98;;;17.10;99.90;;;;;;4265915;27;20047;-83
2022/08/01 06:44:40;;;;;;;12.45;1.58;;;17.10;99.90;;;;;;4265189;27;20043;-83
2022/08/01 06:46:41;;;;;;;6.72;1.85;;;17.30;99.90;;;;;;4238556;27;20127;-83
2022/08/01 06:48:42;;;;;;;13.00;3.28;;;17.20;99.90;;;;;;4248634;27;20126;-83
2022/08/01 06:50:43;;;;;;;8.65;1.80;;;17.30;99.90;;;;;;4213351;28;20040;-83
2022/08/01 06:52:44;;;;;;;12.18;1.80;;;17.30;99.90;;;;;;4248591;27;20546;-83
2022/08/01 06:54:45;;;;;;;19.75;2.47;;;17.30;99.90;;;;;;4248618;27;20039;-84
2022/08/01 06:56:45;;;;;;;12.10;2.20;;;17.40;99.90;;;;;;4247925;27;20039;-83
2022/08/01 06:58:48;;;;;;;15.75;2.28;;;17.40;99.90;;;;;;4248464;27;20035;-84
2022/08/01 07:00:49;;;;;;;9.45;1.48;;;17.50;99.90;;;;;;4248498;27;20139;-83
2022/08/01 07:02:55;;;;;;;7.68;2.30;;;17.50;99.90;;;;;;4230105;28;20124;-83
2022/08/01 07:04:59;;;;;;;11.88;2.40;;;17.60;99.90;;;;;;4248668;27;20479;-84
2022/08/01 07:07:00;;;;;;;16.42;2.53;;;17.60;99.90;;;;;;4229238;28;20492;-84
2022/08/01 07:09:02;;;;;;;17.10;2.45;;;17.80;99.90;;;;;;4248583;27;20403;-85
2022/08/01 07:11:03;;;;;;;11.02;1.45;;;17.80;99.90;;;;;;4247838;27;20461;-83
2022/08/01 07:13:04;;;;;;;9.00;1.38;;;17.90;99.90;;;;;;4261293;27;20043;-84
2022/08/01 07:15:07;;;;;;;14.77;3.05;;;17.90;99.90;;;;;;4247630;27;20043;-83
2022/08/01 07:17:07;;;;;;;7.93;2.28;;;18.10;99.90;;;;;;4246748;27;20085;-83
2022/08/01 07:19:08;;;;;;;10.15;1.73;;;18.10;99.90;;;;;;4264812;27;20035;-83
2022/08/01 07:21:09;;;;;;;8.00;1.35;;;18.30;99.90;;;;;;4247222;27;20051;-83
2022/08/01 07:23:10;;;;;;;9.55;1.92;;;18.30;99.90;;;;;;4265465;27;20042;-84
2022/08/01 07:25:10;;;;;;;11.15;1.85;;;18.40;99.90;;;;;;4265043;27;20049;-83
2022/08/01 07:27:11;;;;;;;9.18;1.42;;;18.60;99.90;;;;;;4265352;27;20046;-83
2022/08/01 07:29:12;;;;;;;9.25;1.40;;;18.60;99.90;;;;;;4264862;27;20042;-84
2022/08/01 07:31:12;;;;;;;12.30;1.75;;;18.70;99.90;;;;;;4246213;27;20526;-83
2022/08/01 07:33:14;;;;;;;9.40;1.45;;;18.80;99.90;;;;;;4229586;28;20155;-82
2022/08/01 07:35:15;;;;;;;6.63;1.48;;;18.90;99.90;;;;;;4265257;27;20042;-83
2022/08/01 07:37:15;;;;;;;8.30;2.63;;;19.10;99.90;;;;;;4265007;27;20129;-83
2022/08/01 07:39:16;;;;;;;8.10;1.33;;;19.20;99.90;;;;;;4263970;27;20046;-83
2022/08/01 07:41:17;;;;;;;10.02;1.63;;;19.30;99.90;;;;;;4212920;28;20527;-83
2022/08/01 07:43:18;;;;;;;9.05;1.75;;;19.40;99.90;;;;;;4247999;27;20054;-83
2022/08/01 07:45:18;;;;;;;12.73;1.40;;;19.50;99.90;;;;;;4247473;27;20051;-83
2022/08/01 07:47:24;;;;;;;12.27;1.70;;;19.50;99.90;;;;;;4229434;28;20047;-83
2022/08/01 07:49:25;;;;;;;5.55;1.15;;;19.60;99.90;;;;;;4227744;28;20101;-83
2022/08/01 07:51:25;;;;;;;11.10;1.48;;;19.70;99.90;;;;;;4246620;27;20058;-83
2022/08/01 07:53:26;;;;;;;13.25;2.28;;;19.90;99.90;;;;;;4246357;27;20161;-83
2022/08/01 07:55:27;;;;;;;6.68;1.40;;;19.90;99.90;;;;;;4246613;27;20050;-83
2022/08/01 07:57:27;;;;;;;8.25;1.25;;;19.80;99.90;;;;;;4229368;28;20082;-84
2022/08/01 07:59:28;;;;;;;10.15;1.52;;;19.80;99.90;;;;;;4264442;27;20043;-83
2022/08/01 08:01:29;;;;;;;12.98;1.50;;;19.90;99.90;;;;;;4264792;27;20401;-83
2022/08/01 08:03:31;;;;;;;8.25;1.60;;;20.00;99.90;;;;;;4246344;28;20053;-83
2022/08/01 08:05:34;;;;;;;11.55;1.33;;;20.20;99.90;;;;;;4265169;27;20118;-83
2022/08/01 08:07:35;;;;;;;7.55;1.63;;;20.30;99.90;;;;;;4245672;28;20055;-83
2022/08/01 08:09:37;;;;;;;12.50;1.38;;;20.40;99.90;;;;;;4246035;28;20065;-83
2022/08/01 08:11:38;;;;;;;10.45;1.80;;;20.60;99.90;;;;;;4247270;28;20047;-83
2022/08/01 08:13:39;;;;;;;7.57;1.30;;;20.70;99.90;;;;;;4247728;28;20046;-83
2022/08/01 08:15:40;;;;;;;10.50;1.50;;;20.90;99.90;;;;;;4229536;28;20113;-83
2022/08/01 08:17:40;;;;;;;12.70;2.22;;;20.90;99.90;;;;;;4229702;28;20123;-83
2022/08/01 08:19:41;;;;;;;11.02;1.40;;;21.00;99.90;;;;;;4251361;27;20747;-83
2022/08/01 08:21:42;;;;;;;8.55;1.02;;;20.90;99.90;;;;;;4250740;27;20050;-83
2022/08/01 08:26:02;;;;;;;;;;;21.20;99.90;;;;;;4251272;27;20464;-83
2022/08/01 08:28:02;;;;;;;12.73;2.25;;;21.20;99.90;;;;;;4251063;27;19923;-83
2022/08/01 08:30:10;;;;;;;10.35;1.63;;;21.30;99.90;;;;;;4250778;27;20054;-83
2022/08/01 08:32:12;;;;;;;6.60;1.88;;;21.40;99.90;;;;;;4250918;27;20035;-83
2022/08/01 08:34:12;;;;;;;13.43;1.88;;;21.60;99.90;;;;;;4250558;27;20530;-83
2022/08/01 08:36:14;;;;;;;9.75;2.78;;;21.90;99.90;;;;;;4250630;27;20050;-83
2022/08/01 08:38:15;;;;;;;9.02;1.40;;;21.80;99.90;;;;;;4250909;27;20414;-83
2022/08/01 08:40:16;;;;;;;5.90;1.02;;;21.60;99.90;;;;;;4247008;27;20054;-83
2022/08/01 08:42:18;;;;;;;13.10;1.42;;;21.60;99.90;;;;;;4249385;27;20096;-83
2022/08/01 08:44:22;;;;;;;10.13;2.53;;;21.70;99.90;;;;;;4249256;27;20051;-83
2022/08/01 08:46:24;;;;;;;6.22;1.02;;;21.90;99.90;;;;;;4249146;27;20575;-83
2022/08/01 08:48:26;;;;;;;9.20;1.23;;;22.10;99.90;;;;;;4249250;27;20054;-83
2022/08/01 08:50:28;;;;;;;7.00;1.00;;;22.20;99.90;;;;;;4251002;27;20148;-83
2022/08/01 08:52:30;;;;;;;13.40;1.27;;;22.30;99.60;;;;;;4249372;27;20078;-83
2022/08/01 08:54:32;;;;;;;4.35;0.80;;;22.30;99.10;;;;;;4250725;27;20184;-83
2022/08/01 08:56:34;;;;;;;5.95;0.93;;;22.30;98.60;;;;;;4250463;27;20488;-83
2022/08/01 08:58:37;;;;;;;11.00;1.70;;;22.30;98.60;;;;;;4250208;27;20129;-83
2022/08/01 09:00:40;;;;;;;7.55;0.95;;;22.40;98.60;;;;;;4249201;27;20480;-83
2022/08/01 09:02:42;;;;;;;6.40;1.25;;;22.70;98.60;;;;;;4248823;27;20098;-83
2022/08/01 09:04:44;;;;;;;6.40;1.88;;;22.90;98.40;;;;;;4250425;27;20039;-83
2022/08/01 09:06:44;;;;;;;7.97;1.13;;;22.80;98.00;;;;;;4249971;27;20039;-83
2022/08/01 09:08:46;;;;;;;7.60;1.40;;;22.70;97.80;;;;;;4236245;27;20104;-83
2022/08/01 09:10:47;;;;;;;5.80;0.98;;;22.70;97.60;;;;;;4233233;27;20048;-83
2022/08/01 09:13:11;;;;;;;11.93;1.63;;;22.70;97.30;;;;;;4231833;28;20434;-83
2022/08/01 09:15:12;;;;;;;10.05;2.05;;;22.60;95.40;;;;;;4233306;28;20483;-83
2022/08/01 09:17:13;;;;;;;5.25;1.45;;;22.70;97.00;;;;;;4233027;28;20085;-83
2022/08/01 09:19:18;;;;;;;6.40;1.15;;;22.80;96.80;;;;;;4231922;28;20579;-84
2022/08/01 09:21:23;;;;;;;5.82;0.68;;;23.10;96.30;;;;;;4233059;28;20054;-84
2022/08/01 09:23:54;;;;;;;6.50;1.00;;;23.10;96.20;;;;;;4214931;28;20051;-83
2022/08/01 09:25:56;;;;;;;9.23;1.42;;;23.20;95.30;;;;;;4232171;28;20056;-83
2022/08/01 09:28:05;;;;;;;8.00;1.00;;;23.40;95.60;;;;;;4232863;27;20055;-83
2022/08/01 09:30:11;;;;;;;6.07;1.92;;;23.30;94.80;;;;;;4230698;28;20486;-83
2022/08/01 09:32:12;;;;;;;8.75;0.95;;;23.00;94.40;;;;;;4233025;28;20476;-83
2022/08/01 09:34:14;;;;;;;7.28;1.42;;;23.00;94.50;;;;;;4244351;27;20122;-84
2022/08/01 09:36:15;;;;;;;5.60;1.40;;;23.20;94.60;;;;;;4249983;27;20047;-83
2022/08/01 09:38:18;;;;;;;7.80;1.45;;;23.20;94.40;;;;;;4249819;27;20085;-83
2022/08/01 09:40:19;;;;;;;8.65;1.30;;;23.20;94.30;;;;;;4248249;27;20054;-83
2022/08/01 09:42:25;;;;;;;10.60;1.33;;;23.40;94.40;;;;;;4250092;27;20131;-83
2022/08/01 09:44:43;;;;;;;5.88;0.80;;;23.70;93.70;;;;;;4248364;27;20143;-83
2022/08/01 09:46:49;;;;;;;11.18;0.90;;;24.00;92.10;;;;;;4248239;27;20051;-82
2022/08/01 09:49:03;;;;;;;5.05;0.65;;;24.00;92.70;;;;;;4232602;27;20082;-82
2022/08/01 09:51:04;;;;;;;8.68;1.23;;;24.20;92.40;;;;;;4231619;28;20061;-82
2022/08/01 09:53:05;;;;;;;5.85;0.90;;;24.30;92.30;;;;;;4232139;28;20079;-82
2022/08/01 09:55:06;;;;;;;3.95;1.00;;;24.40;91.70;;;;;;4231339;28;20039;-82
2022/08/01 09:57:15;;;;;;;5.10;0.70;;;24.50;91.10;;;;;;4231337;28;20586;-82
2022/08/01 09:59:16;;;;;;;5.28;0.75;;;24.60;90.90;;;;;;4235825;28;20483;-82
2022/08/01 10:01:18;;;;;;;7.38;0.88;;;25.00;90.90;;;;;;4232686;27;20050;-82
2022/08/01 10:03:21;;;;;;;9.55;1.88;;;25.20;90.70;;;;;;4235412;27;20235;-82
2022/08/01 10:05:35;;;;;;;11.60;0.70;;;25.20;90.00;;;;;;4249628;27;20612;-83
2022/08/01 10:07:55;;;;;;;5.13;0.80;;;25.50;87.50;;;;;;4248114;27;20510;-83
2022/08/01 10:10:13;;;;;;;5.00;0.82;;;25.40;86.30;;;;;;4248668;27;20048;-82
2022/08/01 10:12:19;;;;;;;6.20;1.15;;;25.30;84.50;;;;;;4248951;27;20046;-83
2022/08/01 10:14:22;;;;;;;8.10;0.88;;;25.00;84.70;;;;;;4249100;27;20039;-82
2022/08/01 10:16:24;;;;;;;3.30;1.10;;;25.00;86.10;;;;;;4248393;27;20035;-83
2022/08/01 10:18:26;;;;;;;7.18;0.63;;;25.10;85.30;;;;;;4248234;27;20039;-82
2022/08/01 10:20:30;;;;;;;3.78;0.70;;;25.30;85.40;;;;;;4215711;28;20052;-82
2022/08/01 10:22:31;;;;;;;6.80;0.73;;;25.60;84.90;;;;;;4231312;28;20494;-82
2022/08/01 10:24:35;;;;;;;10.23;1.13;;;25.80;84.10;;;;;;4231741;28;20043;-82
2022/08/01 10:26:38;;;;;;;5.07;0.90;;;25.90;83.30;;;;;;4231398;28;20044;-82
2022/08/01 10:28:44;;;;;;;5.50;0.68;;;25.90;83.40;;;;;;4248659;27;20169;-83
2022/08/01 10:30:47;;;;;;;7.00;1.35;;;25.70;82.00;;;;;;4248523;27;20495;-83
2022/08/01 10:32:48;;;;;;;5.63;1.00;;;25.70;81.90;;;;;;4248257;27;20049;-83
2022/08/01 10:34:52;;;;;;;6.32;0.63;;;25.80;82.00;;;;;;4247288;27;20101;-83
2022/08/01 10:36:53;;;;;;;5.18;0.65;;;26.10;79.80;;;;;;4247618;27;20046;-83
2022/08/01 10:38:55;;;;;;;4.57;1.02;;;26.00;80.20;;;;;;4247790;27;20138;-83